sensor_id;sensor_type;location;lat;lon;timestamp;P1;durP1;ratioP1;P2;durP2;ratioP2
43994;SDS011;51687;52.160;5.298;2023-01-01T00:01:27;24.45;;;11.98;;
43994;SDS011;51687;52.160;5.298;2023-01-01T00:03:55;17.33;;;10.98;;
43994;SDS011;51687;52.160;5.298;2023-01-01T00:06:23;19.30;;;11.07;;
43994;SDS011;51687;52.160;5.298;2023-01-01T00:08:50;21.15;;;11.13;;
43994;SDS011;51687;52.160;5.298;2023-01-01T00:11:37;17.30;;;10.70;;
43994;SDS011;51687;52.160;5.298;2023-01-01T00:14:04;19.15;;;11.02;;
43994;SDS011;51687;52.160;5.298;2023-01-01T00:16:37;17.00;;;9.70;;
43994;SDS011;51687;52.160;5.298;2023-01-01T00:19:04;12.93;;;10.52;;
43994;SDS011;51687;52.160;5.298;2023-01-01T00:21:32;20.33;;;9.93;;
43994;SDS011;51687;52.160;5.298;2023-01-01T00:23:59;14.05;;;9.82;;
43994;SDS011;51687;52.160;5.298;2023-01-01T00:26:26;18.67;;;11.25;;
43994;SDS011;51687;52.160;5.298;2023-01-01T00:29:00;16.67;;;10.15;;
43994;SDS011;51687;52.160;5.298;2023-01-01T00:31:27;12.35;;;10.05;;
43994;SDS011;51687;52.160;5.298;2023-01-01T00:33:55;16.08;;;10.77;;
43994;SDS011;51687;52.160;5.298;2023-01-01T00:36:23;23.42;;;10.90;;
43994;SDS011;51687;52.160;5.298;2023-01-01T00:38:50;17.60;;;10.40;;
43994;SDS011;51687;52.160;5.298;2023-01-01T00:41:17;14.93;;;10.77;;
43994;SDS011;51687;52.160;5.298;2023-01-01T00:43:44;17.15;;;10.68;;
43994;SDS011;51687;52.160;5.298;2023-01-01T00:46:13;16.77;;;9.43;;
43994;SDS011;51687;52.160;5.298;2023-01-01T00:48:40;21.70;;;9.57;;
43994;SDS011;51687;52.160;5.298;2023-01-01T00:51:07;16.85;;;9.70;;
43994;SDS011;51687;52.160;5.298;2023-01-01T00:53:35;16.33;;;9.15;;
43994;SDS011;51687;52.160;5.298;2023-01-01T00:56:02;14.93;;;7.80;;
43994;SDS011;51687;52.160;5.298;2023-01-01T00:58:29;25.95;;;9.88;;
43994;SDS011;51687;52.160;5.298;2023-01-01T01:00:57;11.35;;;8.60;;
43994;SDS011;51687;52.160;5.298;2023-01-01T01:03:24;14.38;;;7.97;;
43994;SDS011;51687;52.160;5.298;2023-01-01T01:08:31;20.60;;;5.75;;
43994;SDS011;51687;52.160;5.298;2023-01-01T01:11:05;17.23;;;5.90;;
43994;SDS011;51687;52.160;5.298;2023-01-01T01:13:32;13.77;;;6.55;;
43994;SDS011;51687;52.160;5.298;2023-01-01T01:15:59;11.18;;;5.68;;
43994;SDS011;51687;52.160;5.298;2023-01-01T01:18:27;13.38;;;5.15;;
43994;SDS011;51687;52.160;5.298;2023-01-01T01:20:54;12.60;;;6.07;;
43994;SDS011;51687;52.160;5.298;2023-01-01T01:23:21;11.07;;;6.03;;
43994;SDS011;51687;52.160;5.298;2023-01-01T01:25:48;13.07;;;5.43;;
43994;SDS011;51687;52.160;5.298;2023-01-01T01:28:15;13.00;;;5.05;;
43994;SDS011;51687;52.160;5.298;2023-01-01T01:30:42;13.98;;;4.50;;
43994;SDS011;51687;52.160;5.298;2023-01-01T01:33:10;18.45;;;4.65;;
43994;SDS011;51687;52.160;5.298;2023-01-01T01:35:37;10.40;;;3.83;;
43994;SDS011;51687;52.160;5.298;2023-01-01T01:38:04;18.27;;;4.18;;
43994;SDS011;51687;52.160;5.298;2023-01-01T01:40:31;14.40;;;3.95;;
43994;SDS011;51687;52.160;5.298;2023-01-01T01:42:59;7.88;;;4.05;;
43994;SDS011;51687;52.160;5.298;2023-01-01T01:45:26;9.20;;;4.03;;
43994;SDS011;51687;52.160;5.298;2023-01-01T01:47:58;11.57;;;3.85;;
43994;SDS011;51687;52.160;5.298;2023-01-01T01:50:27;14.35;;;4.20;;
43994;SDS011;51687;52.160;5.298;2023-01-01T01:55:28;9.38;;;3.35;;
43994;SDS011;51687;52.160;5.298;2023-01-01T01:57:56;8.60;;;3.28;;
43994;SDS011;51687;52.160;5.298;2023-01-01T02:00:23;9.57;;;3.55;;
43994;SDS011;51687;52.160;5.298;2023-01-01T02:02:55;9.10;;;3.00;;
43994;SDS011;51687;52.160;5.298;2023-01-01T02:05:24;8.35;;;3.25;;
43994;SDS011;51687;52.160;5.298;2023-01-01T02:07:51;8.48;;;2.75;;
43994;SDS011;51687;52.160;5.298;2023-01-01T02:10:19;12.98;;;3.58;;
43994;SDS011;51687;52.160;5.298;2023-01-01T02:12:46;11.30;;;3.42;;
43994;SDS011;51687;52.160;5.298;2023-01-01T02:15:13;8.40;;;3.53;;
43994;SDS011;51687;52.160;5.298;2023-01-01T02:17:55;8.10;;;2.97;;
43994;SDS011;51687;52.160;5.298;2023-01-01T02:20:30;7.07;;;3.45;;
43994;SDS011;51687;52.160;5.298;2023-01-01T02:31:25;11.63;;;2.67;;
43994;SDS011;51687;52.160;5.298;2023-01-01T02:33:55;9.02;;;3.03;;
43994;SDS011;51687;52.160;5.298;2023-01-01T02:36:24;8.43;;;2.90;;
43994;SDS011;51687;52.160;5.298;2023-01-01T02:38:53;9.57;;;3.35;;
43994;SDS011;51687;52.160;5.298;2023-01-01T02:41:25;9.02;;;3.33;;
43994;SDS011;51687;52.160;5.298;2023-01-01T02:43:53;11.20;;;2.58;;
43994;SDS011;51687;52.160;5.298;2023-01-01T02:46:20;7.05;;;2.50;;
43994;SDS011;51687;52.160;5.298;2023-01-01T02:48:47;5.63;;;1.95;;
43994;SDS011;51687;52.160;5.298;2023-01-01T03:01:58;12.88;;;3.50;;
43994;SDS011;51687;52.160;5.298;2023-01-01T03:07:22;6.10;;;2.30;;
43994;SDS011;51687;52.160;5.298;2023-01-01T03:09:52;9.75;;;2.42;;
43994;SDS011;51687;52.160;5.298;2023-01-01T03:12:36;12.68;;;3.38;;
43994;SDS011;51687;52.160;5.298;2023-01-01T03:15:24;9.35;;;2.22;;
43994;SDS011;51687;52.160;5.298;2023-01-01T03:17:56;11.38;;;2.17;;
43994;SDS011;51687;52.160;5.298;2023-01-01T03:20:26;6.72;;;1.80;;
43994;SDS011;51687;52.160;5.298;2023-01-01T03:22:54;6.32;;;2.78;;
43994;SDS011;51687;52.160;5.298;2023-01-01T03:25:22;8.27;;;2.03;;
43994;SDS011;51687;52.160;5.298;2023-01-01T03:28:04;8.30;;;2.30;;
43994;SDS011;51687;52.160;5.298;2023-01-01T03:30:34;10.63;;;2.58;;
43994;SDS011;51687;52.160;5.298;2023-01-01T03:37:59;7.68;;;2.17;;
43994;SDS011;51687;52.160;5.298;2023-01-01T03:40:27;8.82;;;1.95;;
43994;SDS011;51687;52.160;5.298;2023-01-01T03:43:30;4.97;;;2.20;;
43994;SDS011;51687;52.160;5.298;2023-01-01T03:45:50;11.13;;;2.08;;
43994;SDS011;51687;52.160;5.298;2023-01-01T03:48:17;9.93;;;2.75;;
43994;SDS011;51687;52.160;5.298;2023-01-01T03:50:49;9.82;;;2.72;;
43994;SDS011;51687;52.160;5.298;2023-01-01T03:53:40;6.88;;;1.92;;
43994;SDS011;51687;52.160;5.298;2023-01-01T03:58:55;4.65;;;1.80;;
43994;SDS011;51687;52.160;5.298;2023-01-01T04:01:26;6.70;;;2.45;;
43994;SDS011;51687;52.160;5.298;2023-01-01T04:03:54;6.22;;;1.98;;
43994;SDS011;51687;52.160;5.298;2023-01-01T04:06:22;7.45;;;2.15;;
43994;SDS011;51687;52.160;5.298;2023-01-01T04:08:49;6.60;;;2.22;;
43994;SDS011;51687;52.160;5.298;2023-01-01T04:11:18;6.25;;;2.08;;
43994;SDS011;51687;52.160;5.298;2023-01-01T04:16:32;6.63;;;2.15;;
43994;SDS011;51687;52.160;5.298;2023-01-01T04:19:00;14.27;;;1.90;;
43994;SDS011;51687;52.160;5.298;2023-01-01T04:21:27;5.40;;;2.45;;
43994;SDS011;51687;52.160;5.298;2023-01-01T04:23:54;5.30;;;1.60;;
43994;SDS011;51687;52.160;5.298;2023-01-01T04:26:21;5.07;;;1.83;;
43994;SDS011;51687;52.160;5.298;2023-01-01T04:28:48;3.95;;;1.80;;
43994;SDS011;51687;52.160;5.298;2023-01-01T04:31:15;5.28;;;2.05;;
43994;SDS011;51687;52.160;5.298;2023-01-01T04:33:42;6.85;;;1.83;;
43994;SDS011;51687;52.160;5.298;2023-01-01T04:36:09;6.00;;;1.48;;
43994;SDS011;51687;52.160;5.298;2023-01-01T04:38:36;5.63;;;1.83;;
43994;SDS011;51687;52.160;5.298;2023-01-01T04:41:03;5.68;;;1.63;;
43994;SDS011;51687;52.160;5.298;2023-01-01T04:43:30;7.30;;;2.33;;
43994;SDS011;51687;52.160;5.298;2023-01-01T04:45:57;6.95;;;2.78;;
43994;SDS011;51687;52.160;5.298;2023-01-01T04:48:29;7.50;;;2.28;;
43994;SDS011;51687;52.160;5.298;2023-01-01T04:51:00;6.88;;;2.10;;
43994;SDS011;51687;52.160;5.298;2023-01-01T04:53:30;7.43;;;2.35;;
43994;SDS011;51687;52.160;5.298;2023-01-01T04:56:02;10.68;;;2.80;;
43994;SDS011;51687;52.160;5.298;2023-01-01T04:58:37;7.53;;;2.45;;
43994;SDS011;51687;52.160;5.298;2023-01-01T05:01:05;5.50;;;2.40;;
43994;SDS011;51687;52.160;5.298;2023-01-01T05:03:33;4.90;;;2.20;;
43994;SDS011;51687;52.160;5.298;2023-01-01T05:08:28;5.33;;;2.13;;
43994;SDS011;51687;52.160;5.298;2023-01-01T05:11:06;6.28;;;2.47;;
43994;SDS011;51687;52.160;5.298;2023-01-01T05:13:36;4.53;;;1.80;;
43994;SDS011;51687;52.160;5.298;2023-01-01T05:16:03;4.40;;;2.40;;
43994;SDS011;51687;52.160;5.298;2023-01-01T05:20:59;6.53;;;2.33;;
43994;SDS011;51687;52.160;5.298;2023-01-01T05:23:27;6.77;;;1.87;;
43994;SDS011;51687;52.160;5.298;2023-01-01T05:25:55;8.13;;;2.78;;
43994;SDS011;51687;52.160;5.298;2023-01-01T05:28:22;4.80;;;2.03;;
43994;SDS011;51687;52.160;5.298;2023-01-01T05:30:49;6.47;;;1.92;;
43994;SDS011;51687;52.160;5.298;2023-01-01T05:33:17;9.50;;;2.00;;
43994;SDS011;51687;52.160;5.298;2023-01-01T05:35:44;5.93;;;1.58;;
43994;SDS011;51687;52.160;5.298;2023-01-01T05:38:11;7.40;;;1.95;;
43994;SDS011;51687;52.160;5.298;2023-01-01T05:40:38;6.35;;;1.98;;
43994;SDS011;51687;52.160;5.298;2023-01-01T05:43:05;8.68;;;2.25;;
43994;SDS011;51687;52.160;5.298;2023-01-01T05:45:32;4.28;;;1.73;;
43994;SDS011;51687;52.160;5.298;2023-01-01T05:47:59;5.93;;;1.20;;
43994;SDS011;51687;52.160;5.298;2023-01-01T05:50:26;3.42;;;1.23;;
43994;SDS011;51687;52.160;5.298;2023-01-01T05:52:52;7.07;;;1.73;;
43994;SDS011;51687;52.160;5.298;2023-01-01T05:55:19;8.10;;;1.75;;
43994;SDS011;51687;52.160;5.298;2023-01-01T05:57:46;5.75;;;1.58;;
43994;SDS011;51687;52.160;5.298;2023-01-01T06:00:13;3.78;;;1.15;;
43994;SDS011;51687;52.160;5.298;2023-01-01T06:02:40;7.18;;;1.73;;
43994;SDS011;51687;52.160;5.298;2023-01-01T06:05:07;8.23;;;1.95;;
43994;SDS011;51687;52.160;5.298;2023-01-01T06:07:34;5.13;;;1.33;;
43994;SDS011;51687;52.160;5.298;2023-01-01T06:10:00;5.30;;;1.40;;
43994;SDS011;51687;52.160;5.298;2023-01-01T06:12:27;5.43;;;1.42;;
43994;SDS011;51687;52.160;5.298;2023-01-01T06:14:54;7.82;;;1.95;;
43994;SDS011;51687;52.160;5.298;2023-01-01T06:17:20;5.38;;;1.55;;
43994;SDS011;51687;52.160;5.298;2023-01-01T06:19:47;4.13;;;1.40;;
43994;SDS011;51687;52.160;5.298;2023-01-01T06:22:14;2.92;;;1.35;;
43994;SDS011;51687;52.160;5.298;2023-01-01T06:24:40;8.90;;;1.52;;
43994;SDS011;51687;52.160;5.298;2023-01-01T06:27:07;6.57;;;1.88;;
43994;SDS011;51687;52.160;5.298;2023-01-01T06:29:34;6.38;;;1.30;;
43994;SDS011;51687;52.160;5.298;2023-01-01T06:32:00;6.28;;;1.60;;
43994;SDS011;51687;52.160;5.298;2023-01-01T06:34:27;6.72;;;1.63;;
43994;SDS011;51687;52.160;5.298;2023-01-01T06:36:54;4.78;;;1.38;;
43994;SDS011;51687;52.160;5.298;2023-01-01T06:39:26;9.30;;;2.35;;
43994;SDS011;51687;52.160;5.298;2023-01-01T06:41:53;5.15;;;1.90;;
43994;SDS011;51687;52.160;5.298;2023-01-01T06:44:19;5.03;;;1.42;;
43994;SDS011;51687;52.160;5.298;2023-01-01T06:46:46;5.07;;;1.58;;
43994;SDS011;51687;52.160;5.298;2023-01-01T06:49:13;4.68;;;1.73;;
43994;SDS011;51687;52.160;5.298;2023-01-01T06:51:40;6.05;;;1.60;;
43994;SDS011;51687;52.160;5.298;2023-01-01T06:56:35;5.35;;;1.40;;
43994;SDS011;51687;52.160;5.298;2023-01-01T06:59:03;4.65;;;1.60;;
43994;SDS011;51687;52.160;5.298;2023-01-01T07:01:31;6.85;;;1.83;;
43994;SDS011;51687;52.160;5.298;2023-01-01T07:04:02;5.75;;;1.33;;
43994;SDS011;51687;52.160;5.298;2023-01-01T07:06:31;5.15;;;1.27;;
43994;SDS011;51687;52.160;5.298;2023-01-01T07:08:59;5.22;;;1.17;;
43994;SDS011;51687;52.160;5.298;2023-01-01T07:11:26;5.90;;;2.00;;
43994;SDS011;51687;52.160;5.298;2023-01-01T07:13:53;5.82;;;1.65;;
43994;SDS011;51687;52.160;5.298;2023-01-01T07:16:20;7.28;;;2.00;;
43994;SDS011;51687;52.160;5.298;2023-01-01T07:18:48;6.07;;;1.30;;
43994;SDS011;51687;52.160;5.298;2023-01-01T07:23:55;7.80;;;1.23;;
43994;SDS011;51687;52.160;5.298;2023-01-01T07:26:23;6.57;;;1.50;;
43994;SDS011;51687;52.160;5.298;2023-01-01T07:28:51;7.10;;;1.80;;
43994;SDS011;51687;52.160;5.298;2023-01-01T07:31:19;5.75;;;1.20;;
43994;SDS011;51687;52.160;5.298;2023-01-01T07:33:46;5.60;;;1.52;;
43994;SDS011;51687;52.160;5.298;2023-01-01T07:36:12;6.53;;;1.63;;
43994;SDS011;51687;52.160;5.298;2023-01-01T07:38:39;6.95;;;1.48;;
43994;SDS011;51687;52.160;5.298;2023-01-01T07:41:06;8.82;;;1.80;;
43994;SDS011;51687;52.160;5.298;2023-01-01T07:43:33;6.53;;;1.63;;
43994;SDS011;51687;52.160;5.298;2023-01-01T07:45:59;8.93;;;1.63;;
43994;SDS011;51687;52.160;5.298;2023-01-01T07:48:26;6.32;;;1.73;;
43994;SDS011;51687;52.160;5.298;2023-01-01T07:50:53;9.48;;;1.63;;
43994;SDS011;51687;52.160;5.298;2023-01-01T07:53:20;6.65;;;2.13;;
43994;SDS011;51687;52.160;5.298;2023-01-01T07:55:47;12.00;;;2.47;;
43994;SDS011;51687;52.160;5.298;2023-01-01T07:58:13;4.57;;;1.90;;
43994;SDS011;51687;52.160;5.298;2023-01-01T08:00:43;13.95;;;2.20;;
43994;SDS011;51687;52.160;5.298;2023-01-01T08:03:12;5.50;;;1.38;;
43994;SDS011;51687;52.160;5.298;2023-01-01T08:05:39;7.43;;;2.13;;
43994;SDS011;51687;52.160;5.298;2023-01-01T08:08:07;6.55;;;1.65;;
43994;SDS011;51687;52.160;5.298;2023-01-01T08:10:34;8.33;;;2.03;;
43994;SDS011;51687;52.160;5.298;2023-01-01T08:13:02;7.97;;;1.92;;
43994;SDS011;51687;52.160;5.298;2023-01-01T08:15:29;10.35;;;2.28;;
43994;SDS011;51687;52.160;5.298;2023-01-01T08:17:56;9.02;;;1.67;;
43994;SDS011;51687;52.160;5.298;2023-01-01T08:20:27;7.72;;;1.75;;
43994;SDS011;51687;52.160;5.298;2023-01-01T08:22:55;7.13;;;1.77;;
43994;SDS011;51687;52.160;5.298;2023-01-01T08:25:29;7.20;;;2.03;;
43994;SDS011;51687;52.160;5.298;2023-01-01T08:27:56;6.30;;;1.60;;
43994;SDS011;51687;52.160;5.298;2023-01-01T08:30:23;7.97;;;1.92;;
43994;SDS011;51687;52.160;5.298;2023-01-01T08:32:49;8.27;;;2.30;;
43994;SDS011;51687;52.160;5.298;2023-01-01T08:35:16;6.60;;;1.65;;
43994;SDS011;51687;52.160;5.298;2023-01-01T08:37:43;9.25;;;2.50;;
43994;SDS011;51687;52.160;5.298;2023-01-01T08:40:10;8.68;;;1.55;;
43994;SDS011;51687;52.160;5.298;2023-01-01T08:42:38;8.18;;;1.50;;
43994;SDS011;51687;52.160;5.298;2023-01-01T08:45:05;7.40;;;2.03;;
43994;SDS011;51687;52.160;5.298;2023-01-01T08:47:33;7.70;;;1.95;;
43994;SDS011;51687;52.160;5.298;2023-01-01T08:49:59;3.97;;;1.25;;
43994;SDS011;51687;52.160;5.298;2023-01-01T08:52:26;11.73;;;2.28;;
43994;SDS011;51687;52.160;5.298;2023-01-01T08:54:53;7.13;;;1.67;;
43994;SDS011;51687;52.160;5.298;2023-01-01T08:57:19;7.88;;;1.70;;
43994;SDS011;51687;52.160;5.298;2023-01-01T08:59:46;9.55;;;2.03;;
43994;SDS011;51687;52.160;5.298;2023-01-01T09:02:13;9.00;;;2.45;;
43994;SDS011;51687;52.160;5.298;2023-01-01T09:04:40;6.50;;;1.88;;
43994;SDS011;51687;52.160;5.298;2023-01-01T09:07:06;6.78;;;1.92;;
43994;SDS011;51687;52.160;5.298;2023-01-01T09:09:33;7.40;;;2.25;;
43994;SDS011;51687;52.160;5.298;2023-01-01T09:12:00;6.88;;;1.83;;
43994;SDS011;51687;52.160;5.298;2023-01-01T09:14:33;9.93;;;2.03;;
43994;SDS011;51687;52.160;5.298;2023-01-01T09:17:01;11.18;;;2.05;;
43994;SDS011;51687;52.160;5.298;2023-01-01T09:19:28;8.05;;;1.80;;
43994;SDS011;51687;52.160;5.298;2023-01-01T09:21:55;9.45;;;2.03;;
43994;SDS011;51687;52.160;5.298;2023-01-01T09:24:22;16.35;;;3.00;;
43994;SDS011;51687;52.160;5.298;2023-01-01T09:26:48;6.38;;;1.52;;
43994;SDS011;51687;52.160;5.298;2023-01-01T09:29:15;8.95;;;1.73;;
43994;SDS011;51687;52.160;5.298;2023-01-01T09:31:46;10.07;;;1.58;;
43994;SDS011;51687;52.160;5.298;2023-01-01T09:34:13;16.70;;;3.85;;
43994;SDS011;51687;52.160;5.298;2023-01-01T09:36:41;5.60;;;1.48;;
43994;SDS011;51687;52.160;5.298;2023-01-01T09:39:09;8.10;;;2.97;;
43994;SDS011;51687;52.160;5.298;2023-01-01T09:47:20;8.13;;;2.28;;
43994;SDS011;51687;52.160;5.298;2023-01-01T09:49:51;8.40;;;1.98;;
43994;SDS011;51687;52.160;5.298;2023-01-01T09:52:21;7.50;;;2.15;;
43994;SDS011;51687;52.160;5.298;2023-01-01T09:54:54;10.25;;;1.88;;
43994;SDS011;51687;52.160;5.298;2023-01-01T09:57:26;9.75;;;2.38;;
43994;SDS011;51687;52.160;5.298;2023-01-01T09:59:56;8.02;;;2.15;;
43994;SDS011;51687;52.160;5.298;2023-01-01T10:09:10;10.50;;;2.17;;
43994;SDS011;51687;52.160;5.298;2023-01-01T10:11:33;11.85;;;2.28;;
43994;SDS011;51687;52.160;5.298;2023-01-01T10:14:21;6.65;;;1.67;;
43994;SDS011;51687;52.160;5.298;2023-01-01T10:16:55;8.68;;;2.30;;
43994;SDS011;51687;52.160;5.298;2023-01-01T10:22:21;9.02;;;2.00;;
43994;SDS011;51687;52.160;5.298;2023-01-01T10:25:12;9.77;;;1.75;;
43994;SDS011;51687;52.160;5.298;2023-01-01T10:27:46;8.70;;;2.13;;
43994;SDS011;51687;52.160;5.298;2023-01-01T10:30:25;11.63;;;1.77;;
43994;SDS011;51687;52.160;5.298;2023-01-01T10:32:54;9.40;;;2.28;;
43994;SDS011;51687;52.160;5.298;2023-01-01T10:35:31;8.40;;;2.20;;
43994;SDS011;51687;52.160;5.298;2023-01-01T10:38:19;8.80;;;2.13;;
43994;SDS011;51687;52.160;5.298;2023-01-01T10:40:49;7.35;;;1.92;;
43994;SDS011;51687;52.160;5.298;2023-01-01T10:43:19;6.63;;;2.10;;
43994;SDS011;51687;52.160;5.298;2023-01-01T10:45:52;10.77;;;2.80;;
43994;SDS011;51687;52.160;5.298;2023-01-01T10:48:26;6.35;;;1.83;;
43994;SDS011;51687;52.160;5.298;2023-01-01T10:50:56;9.35;;;2.70;;
43994;SDS011;51687;52.160;5.298;2023-01-01T10:53:38;7.57;;;2.00;;
43994;SDS011;51687;52.160;5.298;2023-01-01T10:56:10;11.05;;;2.30;;
43994;SDS011;51687;52.160;5.298;2023-01-01T10:58:39;11.20;;;2.20;;
43994;SDS011;51687;52.160;5.298;2023-01-01T11:01:20;6.80;;;2.17;;
43994;SDS011;51687;52.160;5.298;2023-01-01T11:03:54;9.85;;;2.10;;
43994;SDS011;51687;52.160;5.298;2023-01-01T11:06:42;9.00;;;1.95;;
43994;SDS011;51687;52.160;5.298;2023-01-01T11:09:25;9.85;;;2.97;;
43994;SDS011;51687;52.160;5.298;2023-01-01T11:12:05;12.98;;;2.47;;
43994;SDS011;51687;52.160;5.298;2023-01-01T11:15:03;13.88;;;2.55;;
43994;SDS011;51687;52.160;5.298;2023-01-01T11:17:31;11.73;;;2.60;;
43994;SDS011;51687;52.160;5.298;2023-01-01T11:20:01;10.18;;;2.55;;
43994;SDS011;51687;52.160;5.298;2023-01-01T11:22:37;10.48;;;2.85;;
43994;SDS011;51687;52.160;5.298;2023-01-01T11:25:18;9.88;;;2.63;;
43994;SDS011;51687;52.160;5.298;2023-01-01T11:27:45;8.77;;;2.25;;
43994;SDS011;51687;52.160;5.298;2023-01-01T11:30:20;9.68;;;2.13;;
43994;SDS011;51687;52.160;5.298;2023-01-01T11:32:57;8.57;;;2.17;;
43994;SDS011;51687;52.160;5.298;2023-01-01T11:35:27;5.13;;;1.80;;
43994;SDS011;51687;52.160;5.298;2023-01-01T11:37:56;6.70;;;2.00;;
43994;SDS011;51687;52.160;5.298;2023-01-01T11:40:27;9.07;;;2.33;;
43994;SDS011;51687;52.160;5.298;2023-01-01T11:43:01;8.32;;;2.15;;
43994;SDS011;51687;52.160;5.298;2023-01-01T11:45:33;6.03;;;1.80;;
43994;SDS011;51687;52.160;5.298;2023-01-01T11:48:11;11.60;;;2.60;;
43994;SDS011;51687;52.160;5.298;2023-01-01T11:50:57;9.23;;;2.72;;
43994;SDS011;51687;52.160;5.298;2023-01-01T11:53:31;8.95;;;2.38;;
43994;SDS011;51687;52.160;5.298;2023-01-01T11:58:59;8.70;;;2.55;;
43994;SDS011;51687;52.160;5.298;2023-01-01T12:01:40;10.30;;;2.38;;
43994;SDS011;51687;52.160;5.298;2023-01-01T12:06:57;8.73;;;2.67;;
43994;SDS011;51687;52.160;5.298;2023-01-01T12:09:36;8.70;;;2.90;;
43994;SDS011;51687;52.160;5.298;2023-01-01T12:12:23;9.68;;;3.00;;
43994;SDS011;51687;52.160;5.298;2023-01-01T12:14:56;10.02;;;2.30;;
43994;SDS011;51687;52.160;5.298;2023-01-01T12:20:24;11.80;;;2.83;;
43994;SDS011;51687;52.160;5.298;2023-01-01T12:22:55;9.70;;;2.58;;
43994;SDS011;51687;52.160;5.298;2023-01-01T12:25:25;8.82;;;2.70;;
43994;SDS011;51687;52.160;5.298;2023-01-01T12:28:27;9.70;;;2.50;;
43994;SDS011;51687;52.160;5.298;2023-01-01T12:31:09;10.65;;;2.80;;
43994;SDS011;51687;52.160;5.298;2023-01-01T12:34:22;8.68;;;2.85;;
43994;SDS011;51687;52.160;5.298;2023-01-01T12:42:30;18.23;;;3.60;;
43994;SDS011;51687;52.160;5.298;2023-01-01T12:45:24;13.65;;;2.90;;
43994;SDS011;51687;52.160;5.298;2023-01-01T12:54:16;13.00;;;2.92;;
43994;SDS011;51687;52.160;5.298;2023-01-01T12:57:24;14.88;;;3.08;;
43994;SDS011;51687;52.160;5.298;2023-01-01T13:00:03;11.90;;;3.08;;
43994;SDS011;51687;52.160;5.298;2023-01-01T13:02:37;13.88;;;3.03;;
43994;SDS011;51687;52.160;5.298;2023-01-01T13:05:20;12.75;;;3.85;;
43994;SDS011;51687;52.160;5.298;2023-01-01T13:07:52;15.43;;;2.80;;
43994;SDS011;51687;52.160;5.298;2023-01-01T13:12:55;12.73;;;2.70;;
43994;SDS011;51687;52.160;5.298;2023-01-01T13:15:41;14.55;;;3.50;;
43994;SDS011;51687;52.160;5.298;2023-01-01T13:20:43;10.50;;;3.10;;
43994;SDS011;51687;52.160;5.298;2023-01-01T13:39:50;10.63;;;2.85;;
43994;SDS011;51687;52.160;5.298;2023-01-01T13:45:13;11.75;;;2.75;;
43994;SDS011;51687;52.160;5.298;2023-01-01T13:57:49;7.93;;;2.58;;
43994;SDS011;51687;52.160;5.298;2023-01-01T14:00:31;11.90;;;2.80;;
43994;SDS011;51687;52.160;5.298;2023-01-01T14:03:15;10.88;;;2.58;;
43994;SDS011;51687;52.160;5.298;2023-01-01T14:05:44;11.40;;;2.60;;
43994;SDS011;51687;52.160;5.298;2023-01-01T14:08:31;14.40;;;2.72;;
43994;SDS011;51687;52.160;5.298;2023-01-01T14:10:59;11.77;;;2.83;;
43994;SDS011;51687;52.160;5.298;2023-01-01T14:13:28;9.93;;;2.58;;
43994;SDS011;51687;52.160;5.298;2023-01-01T14:15:58;11.25;;;2.67;;
43994;SDS011;51687;52.160;5.298;2023-01-01T14:19:10;15.43;;;3.08;;
43994;SDS011;51687;52.160;5.298;2023-01-01T14:21:20;7.95;;;2.60;;
43994;SDS011;51687;52.160;5.298;2023-01-01T14:23:56;11.30;;;2.60;;
43994;SDS011;51687;52.160;5.298;2023-01-01T14:26:31;15.98;;;3.55;;
43994;SDS011;51687;52.160;5.298;2023-01-01T14:29:01;11.02;;;2.35;;
43994;SDS011;51687;52.160;5.298;2023-01-01T14:31:38;16.17;;;3.28;;
43994;SDS011;51687;52.160;5.298;2023-01-01T14:34:25;12.05;;;2.75;;
43994;SDS011;51687;52.160;5.298;2023-01-01T14:36:54;9.55;;;2.97;;
43994;SDS011;51687;52.160;5.298;2023-01-01T14:39:27;14.30;;;3.00;;
43994;SDS011;51687;52.160;5.298;2023-01-01T14:41:59;10.20;;;3.60;;
43994;SDS011;51687;52.160;5.298;2023-01-01T14:44:52;7.30;;;2.65;;
43994;SDS011;51687;52.160;5.298;2023-01-01T14:47:25;12.05;;;3.13;;
43994;SDS011;51687;52.160;5.298;2023-01-01T14:50:02;12.05;;;3.35;;
43994;SDS011;51687;52.160;5.298;2023-01-01T14:52:29;13.80;;;3.17;;
43994;SDS011;51687;52.160;5.298;2023-01-01T14:55:00;11.57;;;2.92;;
43994;SDS011;51687;52.160;5.298;2023-01-01T14:57:30;9.70;;;3.00;;
43994;SDS011;51687;52.160;5.298;2023-01-01T14:59:58;10.15;;;2.97;;
43994;SDS011;51687;52.160;5.298;2023-01-01T15:02:27;12.60;;;3.72;;
43994;SDS011;51687;52.160;5.298;2023-01-01T15:04:56;10.90;;;4.28;;
43994;SDS011;51687;52.160;5.298;2023-01-01T15:09:51;11.18;;;3.25;;
43994;SDS011;51687;52.160;5.298;2023-01-01T15:12:19;10.90;;;2.92;;
43994;SDS011;51687;52.160;5.298;2023-01-01T15:14:48;6.80;;;2.13;;
43994;SDS011;51687;52.160;5.298;2023-01-01T15:19:44;12.00;;;2.77;;
43994;SDS011;51687;52.160;5.298;2023-01-01T15:22:24;9.73;;;3.17;;
43994;SDS011;51687;52.160;5.298;2023-01-01T15:24:53;14.85;;;3.50;;
43994;SDS011;51687;52.160;5.298;2023-01-01T15:27:21;13.07;;;3.38;;
43994;SDS011;51687;52.160;5.298;2023-01-01T15:29:50;12.77;;;3.22;;
43994;SDS011;51687;52.160;5.298;2023-01-01T15:32:28;9.57;;;2.72;;
43994;SDS011;51687;52.160;5.298;2023-01-01T15:34:58;12.85;;;3.38;;
43994;SDS011;51687;52.160;5.298;2023-01-01T15:37:34;10.18;;;3.05;;
43994;SDS011;51687;52.160;5.298;2023-01-01T15:42:39;14.38;;;3.10;;
43994;SDS011;51687;52.160;5.298;2023-01-01T15:45:16;12.68;;;3.28;;
43994;SDS011;51687;52.160;5.298;2023-01-01T15:47:48;12.68;;;4.22;;
43994;SDS011;51687;52.160;5.298;2023-01-01T15:52:46;15.30;;;3.42;;
43994;SDS011;51687;52.160;5.298;2023-01-01T15:55:21;7.85;;;2.95;;
43994;SDS011;51687;52.160;5.298;2023-01-01T15:57:49;7.47;;;2.60;;
43994;SDS011;51687;52.160;5.298;2023-01-01T16:00:18;14.30;;;3.72;;
43994;SDS011;51687;52.160;5.298;2023-01-01T16:02:49;11.73;;;3.95;;
43994;SDS011;51687;52.160;5.298;2023-01-01T16:05:19;14.30;;;4.30;;
43994;SDS011;51687;52.160;5.298;2023-01-01T16:08:04;8.65;;;3.25;;
43994;SDS011;51687;52.160;5.298;2023-01-01T16:10:31;12.93;;;3.83;;
43994;SDS011;51687;52.160;5.298;2023-01-01T16:12:57;9.32;;;3.20;;
43994;SDS011;51687;52.160;5.298;2023-01-01T16:15:24;11.02;;;3.17;;
43994;SDS011;51687;52.160;5.298;2023-01-01T16:17:51;12.85;;;3.67;;
43994;SDS011;51687;52.160;5.298;2023-01-01T16:20:19;11.90;;;2.80;;
43994;SDS011;51687;52.160;5.298;2023-01-01T16:22:47;9.77;;;2.80;;
43994;SDS011;51687;52.160;5.298;2023-01-01T16:25:15;13.05;;;4.22;;
43994;SDS011;51687;52.160;5.298;2023-01-01T16:27:46;9.43;;;3.35;;
43994;SDS011;51687;52.160;5.298;2023-01-01T16:30:13;10.15;;;4.05;;
43994;SDS011;51687;52.160;5.298;2023-01-01T16:32:40;15.27;;;3.88;;
43994;SDS011;51687;52.160;5.298;2023-01-01T16:35:11;11.23;;;4.38;;
43994;SDS011;51687;52.160;5.298;2023-01-01T16:37:38;10.60;;;3.80;;
43994;SDS011;51687;52.160;5.298;2023-01-01T16:40:05;12.93;;;4.45;;
43994;SDS011;51687;52.160;5.298;2023-01-01T16:42:33;11.60;;;3.72;;
43994;SDS011;51687;52.160;5.298;2023-01-01T16:45:00;10.25;;;3.88;;
43994;SDS011;51687;52.160;5.298;2023-01-01T16:47:26;16.92;;;4.55;;
43994;SDS011;51687;52.160;5.298;2023-01-01T16:49:53;11.05;;;3.67;;
43994;SDS011;51687;52.160;5.298;2023-01-01T16:52:19;15.60;;;4.45;;
43994;SDS011;51687;52.160;5.298;2023-01-01T16:54:46;15.65;;;3.97;;
43994;SDS011;51687;52.160;5.298;2023-01-01T16:57:13;11.88;;;3.80;;
43994;SDS011;51687;52.160;5.298;2023-01-01T16:59:40;13.65;;;5.25;;
43994;SDS011;51687;52.160;5.298;2023-01-01T17:02:09;11.02;;;4.50;;
43994;SDS011;51687;52.160;5.298;2023-01-01T17:04:36;12.10;;;4.70;;
43994;SDS011;51687;52.160;5.298;2023-01-01T17:07:03;18.40;;;4.47;;
43994;SDS011;51687;52.160;5.298;2023-01-01T17:09:30;14.85;;;4.82;;